Fortaleza Dos Nogueiras, Brazil
Current Conditions -  °F | °C
As of 8:00 PM on Saturday 25 Oct 2014 (Local Time) from SBIZ Reporting Station
Broken Clouds Broken Clouds  
Wind Chill: 81°   Ceiling: 7000
Heat Index: 85°   Visibility: 6mi
Dew Point: 72°   Wind: 6mph
Humidity: 74%   Direction: 30°NNE
Pressure: 29.77"   Gusts: NA
Location:  6.9°S, 46.15°W
Report Text: SBIZ 252300Z 03005KT 9999 FEW020 BKN070 27/22 Q1008 RETS
Loading
Personal Weather Stations






























Interactive Weather Map New forecast layout! Learn more

10-Day Weather Forecast

Advertisements
Track Severe Weather on mobile